sensor_id;sensor_type;location;lat;lon;timestamp;P1;durP1;ratioP1;P2;durP2;ratioP2
67344;SDS011;54230;52.402;6.276;2023-05-10T00:00:00;21.3;;;10.1;;
67344;SDS011;54230;52.402;6.276;2023-05-10T00:05:00;21.0;;;10.2;;
67344;SDS011;54230;52.402;6.276;2023-05-10T00:10:00;21.8;;;10.1;;
67344;SDS011;54230;52.402;6.276;2023-05-10T00:15:00;20.7;;;10.2;;
67344;SDS011;54230;52.402;6.276;2023-05-10T00:20:00;21.8;;;10.5;;
67344;SDS011;54230;52.402;6.276;2023-05-10T00:25:00;23.4;;;10.3;;
67344;SDS011;54230;52.402;6.276;2023-05-10T00:30:00;21.0;;;9.8;;
67344;SDS011;54230;52.402;6.276;2023-05-10T00:35:00;21.0;;;10.0;;
67344;SDS011;54230;52.402;6.276;2023-05-10T00:40:00;21.3;;;9.2;;
67344;SDS011;54230;52.402;6.276;2023-05-10T00:45:00;21.1;;;9.4;;
67344;SDS011;54230;52.402;6.276;2023-05-10T00:50:00;21.7;;;9.8;;
67344;SDS011;54230;52.402;6.276;2023-05-10T00:55:00;20.1;;;9.3;;
67344;SDS011;54230;52.402;6.276;2023-05-10T01:00:00;23.2;;;9.6;;
67344;SDS011;54230;52.402;6.276;2023-05-10T01:05:00;21.9;;;9.7;;
67344;SDS011;54230;52.402;6.276;2023-05-10T01:10:00;21.9;;;9.5;;
67344;SDS011;54230;52.402;6.276;2023-05-10T01:15:00;21.3;;;9.5;;
67344;SDS011;54230;52.402;6.276;2023-05-10T01:20:00;19.1;;;9.0;;
67344;SDS011;54230;52.402;6.276;2023-05-10T01:30:01;19.2;;;9.1;;
67344;SDS011;54230;52.402;6.276;2023-05-10T01:35:01;19.0;;;8.5;;
67344;SDS011;54230;52.402;6.276;2023-05-10T01:40:02;19.7;;;9.0;;
67344;SDS011;54230;52.402;6.276;2023-05-10T01:45:02;20.6;;;8.7;;
67344;SDS011;54230;52.402;6.276;2023-05-10T01:50:01;20.2;;;9.1;;
67344;SDS011;54230;52.402;6.276;2023-05-10T01:55:01;22.6;;;9.5;;
67344;SDS011;54230;52.402;6.276;2023-05-10T02:00:01;21.9;;;9.0;;
67344;SDS011;54230;52.402;6.276;2023-05-10T02:05:00;21.3;;;9.4;;
67344;SDS011;54230;52.402;6.276;2023-05-10T02:10:00;22.4;;;9.4;;
67344;SDS011;54230;52.402;6.276;2023-05-10T02:15:02;22.1;;;9.4;;
67344;SDS011;54230;52.402;6.276;2023-05-10T02:20:01;25.8;;;10.0;;
67344;SDS011;54230;52.402;6.276;2023-05-10T02:25:00;27.7;;;10.2;;
67344;SDS011;54230;52.402;6.276;2023-05-10T02:30:00;27.5;;;10.2;;
67344;SDS011;54230;52.402;6.276;2023-05-10T02:35:00;30.5;;;10.6;;
67344;SDS011;54230;52.402;6.276;2023-05-10T02:40:00;30.0;;;11.2;;
67344;SDS011;54230;52.402;6.276;2023-05-10T02:45:01;33.9;;;11.9;;
67344;SDS011;54230;52.402;6.276;2023-05-10T02:50:00;39.1;;;12.0;;
67344;SDS011;54230;52.402;6.276;2023-05-10T02:55:00;44.0;;;13.0;;
67344;SDS011;54230;52.402;6.276;2023-05-10T03:00:00;42.0;;;13.0;;
67344;SDS011;54230;52.402;6.276;2023-05-10T03:05:00;39.4;;;13.0;;
67344;SDS011;54230;52.402;6.276;2023-05-10T03:10:00;44.3;;;14.0;;
67344;SDS011;54230;52.402;6.276;2023-05-10T03:15:00;44.5;;;14.2;;
67344;SDS011;54230;52.402;6.276;2023-05-10T03:20:03;47.4;;;14.4;;
67344;SDS011;54230;52.402;6.276;2023-05-10T03:25:00;44.9;;;14.4;;
67344;SDS011;54230;52.402;6.276;2023-05-10T03:30:00;52.6;;;15.1;;
67344;SDS011;54230;52.402;6.276;2023-05-10T03:35:00;52.5;;;15.1;;
67344;SDS011;54230;52.402;6.276;2023-05-10T03:40:00;56.9;;;16.0;;
67344;SDS011;54230;52.402;6.276;2023-05-10T03:45:00;61.8;;;16.8;;
67344;SDS011;54230;52.402;6.276;2023-05-10T03:50:00;69.9;;;18.1;;
67344;SDS011;54230;52.402;6.276;2023-05-10T03:55:00;72.6;;;18.8;;
67344;SDS011;54230;52.402;6.276;2023-05-10T04:00:00;84.9;;;19.6;;
67344;SDS011;54230;52.402;6.276;2023-05-10T04:05:00;90.2;;;20.3;;
67344;SDS011;54230;52.402;6.276;2023-05-10T04:10:00;93.5;;;22.1;;
67344;SDS011;54230;52.402;6.276;2023-05-10T04:15:00;98.4;;;21.8;;
67344;SDS011;54230;52.402;6.276;2023-05-10T04:20:00;98.9;;;22.0;;
67344;SDS011;54230;52.402;6.276;2023-05-10T04:25:00;105.2;;;22.7;;
67344;SDS011;54230;52.402;6.276;2023-05-10T04:30:00;97.0;;;22.1;;
67344;SDS011;54230;52.402;6.276;2023-05-10T04:35:00;109.4;;;23.5;;
67344;SDS011;54230;52.402;6.276;2023-05-10T04:40:00;114.0;;;24.2;;
67344;SDS011;54230;52.402;6.276;2023-05-10T04:45:00;115.7;;;25.2;;
67344;SDS011;54230;52.402;6.276;2023-05-10T04:50:00;131.9;;;26.9;;
67344;SDS011;54230;52.402;6.276;2023-05-10T04:55:00;127.7;;;26.7;;
67344;SDS011;54230;52.402;6.276;2023-05-10T05:00:00;132.7;;;27.1;;
67344;SDS011;54230;52.402;6.276;2023-05-10T05:05:00;135.0;;;28.4;;
67344;SDS011;54230;52.402;6.276;2023-05-10T05:10:00;129.9;;;28.1;;
67344;SDS011;54230;52.402;6.276;2023-05-10T05:15:00;128.2;;;28.6;;
67344;SDS011;54230;52.402;6.276;2023-05-10T05:20:00;125.5;;;28.8;;
67344;SDS011;54230;52.402;6.276;2023-05-10T05:25:00;133.2;;;28.8;;
67344;SDS011;54230;52.402;6.276;2023-05-10T05:30:00;145.5;;;29.7;;
67344;SDS011;54230;52.402;6.276;2023-05-10T05:35:00;135.7;;;29.6;;
67344;SDS011;54230;52.402;6.276;2023-05-10T05:40:00;136.9;;;30.8;;
67344;SDS011;54230;52.402;6.276;2023-05-10T05:45:00;132.2;;;31.1;;
67344;SDS011;54230;52.402;6.276;2023-05-10T05:50:00;134.3;;;31.1;;
67344;SDS011;54230;52.402;6.276;2023-05-10T05:55:00;125.9;;;30.5;;
67344;SDS011;54230;52.402;6.276;2023-05-10T06:00:00;108.3;;;28.5;;
67344;SDS011;54230;52.402;6.276;2023-05-10T06:05:00;114.4;;;29.9;;
67344;SDS011;54230;52.402;6.276;2023-05-10T06:10:00;107.5;;;29.1;;
67344;SDS011;54230;52.402;6.276;2023-05-10T06:15:00;100.5;;;28.0;;
67344;SDS011;54230;52.402;6.276;2023-05-10T06:20:00;80.5;;;24.3;;
67344;SDS011;54230;52.402;6.276;2023-05-10T06:25:00;80.0;;;24.7;;
67344;SDS011;54230;52.402;6.276;2023-05-10T06:30:00;78.2;;;24.5;;
67344;SDS011;54230;52.402;6.276;2023-05-10T06:35:00;67.8;;;23.7;;
67344;SDS011;54230;52.402;6.276;2023-05-10T06:40:00;68.3;;;24.4;;
67344;SDS011;54230;52.402;6.276;2023-05-10T06:45:00;69.0;;;24.5;;
67344;SDS011;54230;52.402;6.276;2023-05-10T06:50:00;70.4;;;25.6;;
67344;SDS011;54230;52.402;6.276;2023-05-10T06:55:00;70.4;;;24.6;;
67344;SDS011;54230;52.402;6.276;2023-05-10T07:00:00;63.6;;;24.3;;
67344;SDS011;54230;52.402;6.276;2023-05-10T07:05:00;53.5;;;20.5;;
67344;SDS011;54230;52.402;6.276;2023-05-10T07:10:00;52.7;;;19.4;;
67344;SDS011;54230;52.402;6.276;2023-05-10T07:15:00;58.1;;;19.7;;
67344;SDS011;54230;52.402;6.276;2023-05-10T07:20:00;55.4;;;18.6;;
67344;SDS011;54230;52.402;6.276;2023-05-10T07:25:00;47.5;;;17.1;;
67344;SDS011;54230;52.402;6.276;2023-05-10T07:30:00;43.4;;;16.5;;
67344;SDS011;54230;52.402;6.276;2023-05-10T07:35:00;34.9;;;14.1;;
67344;SDS011;54230;52.402;6.276;2023-05-10T07:40:00;29.9;;;12.6;;
67344;SDS011;54230;52.402;6.276;2023-05-10T07:45:00;28.7;;;11.8;;
67344;SDS011;54230;52.402;6.276;2023-05-10T07:50:00;27.2;;;11.3;;
67344;SDS011;54230;52.402;6.276;2023-05-10T07:55:00;26.7;;;10.9;;
67344;SDS011;54230;52.402;6.276;2023-05-10T08:00:00;27.7;;;10.6;;
67344;SDS011;54230;52.402;6.276;2023-05-10T08:05:00;22.7;;;10.7;;
67344;SDS011;54230;52.402;6.276;2023-05-10T08:10:00;23.6;;;10.0;;
67344;SDS011;54230;52.402;6.276;2023-05-10T08:15:00;21.0;;;9.0;;
67344;SDS011;54230;52.402;6.276;2023-05-10T08:20:00;18.8;;;8.4;;
67344;SDS011;54230;52.402;6.276;2023-05-10T08:25:00;15.1;;;7.4;;
67344;SDS011;54230;52.402;6.276;2023-05-10T08:30:00;14.4;;;6.5;;
67344;SDS011;54230;52.402;6.276;2023-05-10T08:35:00;11.0;;;5.5;;
67344;SDS011;54230;52.402;6.276;2023-05-10T08:40:00;9.9;;;5.1;;
67344;SDS011;54230;52.402;6.276;2023-05-10T08:45:00;10.5;;;5.5;;
67344;SDS011;54230;52.402;6.276;2023-05-10T08:50:00;12.6;;;5.4;;
67344;SDS011;54230;52.402;6.276;2023-05-10T08:55:00;8.7;;;4.7;;
67344;SDS011;54230;52.402;6.276;2023-05-10T09:00:00;8.9;;;4.7;;
67344;SDS011;54230;52.402;6.276;2023-05-10T09:05:00;10.2;;;4.4;;
67344;SDS011;54230;52.402;6.276;2023-05-10T09:10:00;10.3;;;5.1;;
67344;SDS011;54230;52.402;6.276;2023-05-10T09:15:00;9.8;;;5.2;;
67344;SDS011;54230;52.402;6.276;2023-05-10T09:20:00;9.6;;;4.6;;
67344;SDS011;54230;52.402;6.276;2023-05-10T09:25:04;10.5;;;4.6;;
67344;SDS011;54230;52.402;6.276;2023-05-10T09:30:00;9.3;;;4.5;;
67344;SDS011;54230;52.402;6.276;2023-05-10T09:35:05;8.7;;;4.4;;
67344;SDS011;54230;52.402;6.276;2023-05-10T09:40:00;9.3;;;5.0;;
67344;SDS011;54230;52.402;6.276;2023-05-10T09:45:01;10.0;;;4.6;;
67344;SDS011;54230;52.402;6.276;2023-05-10T09:50:00;8.9;;;4.4;;
67344;SDS011;54230;52.402;6.276;2023-05-10T09:55:00;8.4;;;4.4;;
67344;SDS011;54230;52.402;6.276;2023-05-10T10:00:00;8.5;;;4.9;;
67344;SDS011;54230;52.402;6.276;2023-05-10T10:05:00;8.5;;;4.7;;
67344;SDS011;54230;52.402;6.276;2023-05-10T10:10:00;8.3;;;4.1;;
67344;SDS011;54230;52.402;6.276;2023-05-10T10:15:00;7.4;;;3.9;;
67344;SDS011;54230;52.402;6.276;2023-05-10T10:20:00;6.2;;;3.4;;
67344;SDS011;54230;52.402;6.276;2023-05-10T10:25:00;6.8;;;3.4;;
67344;SDS011;54230;52.402;6.276;2023-05-10T10:30:02;7.7;;;3.5;;
67344;SDS011;54230;52.402;6.276;2023-05-10T10:35:00;6.5;;;3.7;;
67344;SDS011;54230;52.402;6.276;2023-05-10T10:40:00;6.9;;;3.5;;
67344;SDS011;54230;52.402;6.276;2023-05-10T10:50:04;7.8;;;4.2;;
67344;SDS011;54230;52.402;6.276;2023-05-10T10:55:01;6.6;;;3.6;;
67344;SDS011;54230;52.402;6.276;2023-05-10T11:10:03;8.6;;;3.6;;
67344;SDS011;54230;52.402;6.276;2023-05-10T11:15:00;6.4;;;3.4;;
67344;SDS011;54230;52.402;6.276;2023-05-10T11:20:08;6.7;;;3.4;;
67344;SDS011;54230;52.402;6.276;2023-05-10T11:25:00;6.0;;;3.3;;
67344;SDS011;54230;52.402;6.276;2023-05-10T11:30:00;6.1;;;3.2;;
67344;SDS011;54230;52.402;6.276;2023-05-10T11:35:05;7.3;;;3.5;;
67344;SDS011;54230;52.402;6.276;2023-05-10T11:40:00;8.2;;;4.1;;
67344;SDS011;54230;52.402;6.276;2023-05-10T11:45:00;7.4;;;3.8;;
67344;SDS011;54230;52.402;6.276;2023-05-10T11:50:00;7.5;;;3.9;;
67344;SDS011;54230;52.402;6.276;2023-05-10T11:55:00;9.8;;;4.1;;
67344;SDS011;54230;52.402;6.276;2023-05-10T12:00:00;7.0;;;3.8;;
67344;SDS011;54230;52.402;6.276;2023-05-10T12:05:00;6.6;;;3.6;;
67344;SDS011;54230;52.402;6.276;2023-05-10T12:10:04;8.3;;;4.5;;
67344;SDS011;54230;52.402;6.276;2023-05-10T12:15:01;7.6;;;3.8;;
67344;SDS011;54230;52.402;6.276;2023-05-10T12:25:00;9.0;;;4.8;;
67344;SDS011;54230;52.402;6.276;2023-05-10T12:30:00;9.4;;;5.1;;
67344;SDS011;54230;52.402;6.276;2023-05-10T12:35:00;10.9;;;5.6;;
67344;SDS011;54230;52.402;6.276;2023-05-10T12:40:00;10.5;;;5.5;;
67344;SDS011;54230;52.402;6.276;2023-05-10T12:45:00;10.4;;;5.3;;
67344;SDS011;54230;52.402;6.276;2023-05-10T12:50:01;7.3;;;4.2;;
67344;SDS011;54230;52.402;6.276;2023-05-10T12:55:00;10.2;;;5.0;;
67344;SDS011;54230;52.402;6.276;2023-05-10T13:00:00;8.1;;;4.6;;
67344;SDS011;54230;52.402;6.276;2023-05-10T13:05:00;10.3;;;4.8;;
67344;SDS011;54230;52.402;6.276;2023-05-10T13:10:00;9.4;;;4.4;;
67344;SDS011;54230;52.402;6.276;2023-05-10T13:15:00;9.3;;;4.8;;
67344;SDS011;54230;52.402;6.276;2023-05-10T13:20:00;9.9;;;5.3;;
67344;SDS011;54230;52.402;6.276;2023-05-10T13:25:00;10.1;;;5.2;;
67344;SDS011;54230;52.402;6.276;2023-05-10T13:30:00;11.1;;;5.7;;
67344;SDS011;54230;52.402;6.276;2023-05-10T13:35:00;10.8;;;5.8;;
67344;SDS011;54230;52.402;6.276;2023-05-10T13:40:00;11.1;;;5.6;;
67344;SDS011;54230;52.402;6.276;2023-05-10T13:45:00;11.8;;;5.8;;
67344;SDS011;54230;52.402;6.276;2023-05-10T13:50:00;10.7;;;5.9;;
67344;SDS011;54230;52.402;6.276;2023-05-10T13:55:00;11.6;;;6.1;;
67344;SDS011;54230;52.402;6.276;2023-05-10T14:00:00;12.0;;;5.8;;
67344;SDS011;54230;52.402;6.276;2023-05-10T14:05:00;11.4;;;6.3;;
67344;SDS011;54230;52.402;6.276;2023-05-10T14:10:00;14.9;;;6.7;;
67344;SDS011;54230;52.402;6.276;2023-05-10T14:15:00;12.5;;;6.4;;
67344;SDS011;54230;52.402;6.276;2023-05-10T14:20:00;12.4;;;6.5;;
67344;SDS011;54230;52.402;6.276;2023-05-10T14:25:00;13.3;;;6.8;;
67344;SDS011;54230;52.402;6.276;2023-05-10T14:30:00;13.2;;;6.8;;
67344;SDS011;54230;52.402;6.276;2023-05-10T14:35:00;13.5;;;6.7;;
67344;SDS011;54230;52.402;6.276;2023-05-10T14:40:00;13.1;;;7.3;;
67344;SDS011;54230;52.402;6.276;2023-05-10T14:45:00;15.6;;;6.9;;
67344;SDS011;54230;52.402;6.276;2023-05-10T14:50:00;12.3;;;7.1;;
67344;SDS011;54230;52.402;6.276;2023-05-10T14:55:00;13.2;;;7.1;;
67344;SDS011;54230;52.402;6.276;2023-05-10T15:00:00;12.0;;;6.7;;
67344;SDS011;54230;52.402;6.276;2023-05-10T15:05:00;11.9;;;7.0;;
67344;SDS011;54230;52.402;6.276;2023-05-10T15:10:00;10.9;;;5.0;;
67344;SDS011;54230;52.402;6.276;2023-05-10T15:15:00;10.5;;;5.6;;
67344;SDS011;54230;52.402;6.276;2023-05-10T15:20:00;11.5;;;6.3;;
67344;SDS011;54230;52.402;6.276;2023-05-10T15:25:00;11.7;;;6.2;;
67344;SDS011;54230;52.402;6.276;2023-05-10T15:30:00;10.5;;;6.2;;
67344;SDS011;54230;52.402;6.276;2023-05-10T15:35:00;10.0;;;6.0;;
67344;SDS011;54230;52.402;6.276;2023-05-10T15:40:00;11.4;;;6.2;;
67344;SDS011;54230;52.402;6.276;2023-05-10T15:45:00;10.1;;;6.1;;
67344;SDS011;54230;52.402;6.276;2023-05-10T15:50:00;12.9;;;6.6;;
67344;SDS011;54230;52.402;6.276;2023-05-10T15:55:00;11.9;;;6.8;;
67344;SDS011;54230;52.402;6.276;2023-05-10T16:00:00;9.5;;;5.5;;
67344;SDS011;54230;52.402;6.276;2023-05-10T16:05:00;11.2;;;6.6;;
67344;SDS011;54230;52.402;6.276;2023-05-10T16:10:00;11.8;;;6.9;;
67344;SDS011;54230;52.402;6.276;2023-05-10T16:15:00;12.5;;;7.0;;
67344;SDS011;54230;52.402;6.276;2023-05-10T16:20:00;11.0;;;6.0;;
67344;SDS011;54230;52.402;6.276;2023-05-10T16:25:00;13.4;;;7.2;;
67344;SDS011;54230;52.402;6.276;2023-05-10T16:30:00;11.0;;;6.2;;
67344;SDS011;54230;52.402;6.276;2023-05-10T16:35:00;12.8;;;7.1;;
67344;SDS011;54230;52.402;6.276;2023-05-10T16:40:00;10.9;;;6.2;;
67344;SDS011;54230;52.402;6.276;2023-05-10T16:45:00;12.7;;;7.5;;
67344;SDS011;54230;52.402;6.276;2023-05-10T16:50:00;15.3;;;7.7;;
67344;SDS011;54230;52.402;6.276;2023-05-10T16:55:00;12.2;;;6.7;;
67344;SDS011;54230;52.402;6.276;2023-05-10T17:00:00;12.5;;;6.1;;
67344;SDS011;54230;52.402;6.276;2023-05-10T17:05:00;11.0;;;6.0;;
67344;SDS011;54230;52.402;6.276;2023-05-10T17:10:00;10.3;;;5.5;;
67344;SDS011;54230;52.402;6.276;2023-05-10T17:15:00;9.7;;;5.1;;
67344;SDS011;54230;52.402;6.276;2023-05-10T17:20:00;9.7;;;5.1;;
67344;SDS011;54230;52.402;6.276;2023-05-10T17:25:00;9.6;;;5.1;;
67344;SDS011;54230;52.402;6.276;2023-05-10T17:30:00;11.0;;;6.0;;
67344;SDS011;54230;52.402;6.276;2023-05-10T17:35:01;10.5;;;5.8;;
67344;SDS011;54230;52.402;6.276;2023-05-10T17:40:00;11.6;;;6.2;;
67344;SDS011;54230;52.402;6.276;2023-05-10T17:45:00;12.0;;;6.3;;
67344;SDS011;54230;52.402;6.276;2023-05-10T17:50:00;12.7;;;6.4;;
67344;SDS011;54230;52.402;6.276;2023-05-10T17:55:00;14.0;;;6.7;;
67344;SDS011;54230;52.402;6.276;2023-05-10T18:00:00;10.9;;;6.2;;
67344;SDS011;54230;52.402;6.276;2023-05-10T18:05:00;12.1;;;6.2;;
67344;SDS011;54230;52.402;6.276;2023-05-10T18:10:00;11.4;;;6.4;;
67344;SDS011;54230;52.402;6.276;2023-05-10T18:15:00;12.7;;;6.3;;
67344;SDS011;54230;52.402;6.276;2023-05-10T18:20:00;11.4;;;5.5;;
67344;SDS011;54230;52.402;6.276;2023-05-10T18:25:00;12.6;;;6.1;;
67344;SDS011;54230;52.402;6.276;2023-05-10T18:30:00;10.7;;;6.1;;
67344;SDS011;54230;52.402;6.276;2023-05-10T18:35:00;12.1;;;6.1;;
67344;SDS011;54230;52.402;6.276;2023-05-10T18:40:00;10.4;;;6.2;;
67344;SDS011;54230;52.402;6.276;2023-05-10T18:45:00;9.7;;;5.8;;
67344;SDS011;54230;52.402;6.276;2023-05-10T18:50:01;11.2;;;5.5;;
67344;SDS011;54230;52.402;6.276;2023-05-10T18:55:00;9.7;;;5.5;;
67344;SDS011;54230;52.402;6.276;2023-05-10T19:00:00;10.1;;;5.8;;
67344;SDS011;54230;52.402;6.276;2023-05-10T19:05:00;13.3;;;6.7;;
67344;SDS011;54230;52.402;6.276;2023-05-10T19:10:00;14.9;;;6.8;;
67344;SDS011;54230;52.402;6.276;2023-05-10T19:15:00;13.5;;;6.9;;
67344;SDS011;54230;52.402;6.276;2023-05-10T19:20:00;13.1;;;7.2;;
67344;SDS011;54230;52.402;6.276;2023-05-10T19:25:00;11.3;;;6.1;;
67344;SDS011;54230;52.402;6.276;2023-05-10T19:30:00;13.4;;;6.1;;
67344;SDS011;54230;52.402;6.276;2023-05-10T19:35:00;12.9;;;6.8;;
67344;SDS011;54230;52.402;6.276;2023-05-10T19:40:00;13.8;;;6.7;;
67344;SDS011;54230;52.402;6.276;2023-05-10T19:45:00;12.4;;;6.7;;
67344;SDS011;54230;52.402;6.276;2023-05-10T19:50:00;12.5;;;6.6;;
67344;SDS011;54230;52.402;6.276;2023-05-10T19:55:00;13.5;;;6.5;;
67344;SDS011;54230;52.402;6.276;2023-05-10T20:00:00;13.5;;;6.7;;
67344;SDS011;54230;52.402;6.276;2023-05-10T20:05:00;13.8;;;6.5;;
67344;SDS011;54230;52.402;6.276;2023-05-10T20:10:00;11.7;;;5.9;;
67344;SDS011;54230;52.402;6.276;2023-05-10T20:15:00;13.6;;;6.8;;
67344;SDS011;54230;52.402;6.276;2023-05-10T20:20:00;12.5;;;6.0;;
67344;SDS011;54230;52.402;6.276;2023-05-10T20:25:00;12.0;;;6.1;;
67344;SDS011;54230;52.402;6.276;2023-05-10T20:30:00;12.8;;;5.9;;
67344;SDS011;54230;52.402;6.276;2023-05-10T20:35:00;12.1;;;6.3;;
67344;SDS011;54230;52.402;6.276;2023-05-10T20:40:00;14.3;;;6.6;;
67344;SDS011;54230;52.402;6.276;2023-05-10T20:45:00;13.0;;;6.4;;
67344;SDS011;54230;52.402;6.276;2023-05-10T20:50:00;12.5;;;5.9;;
67344;SDS011;54230;52.402;6.276;2023-05-10T20:55:00;12.0;;;6.2;;
67344;SDS011;54230;52.402;6.276;2023-05-10T21:00:00;12.5;;;6.7;;
67344;SDS011;54230;52.402;6.276;2023-05-10T21:05:00;12.2;;;7.1;;
67344;SDS011;54230;52.402;6.276;2023-05-10T21:10:00;11.8;;;6.0;;
67344;SDS011;54230;52.402;6.276;2023-05-10T21:15:00;11.2;;;6.1;;
67344;SDS011;54230;52.402;6.276;2023-05-10T21:20:00;12.6;;;6.7;;
67344;SDS011;54230;52.402;6.276;2023-05-10T21:25:00;13.9;;;6.8;;
67344;SDS011;54230;52.402;6.276;2023-05-10T21:30:00;13.0;;;7.0;;
67344;SDS011;54230;52.402;6.276;2023-05-10T21:35:00;13.9;;;6.9;;
67344;SDS011;54230;52.402;6.276;2023-05-10T21:40:01;14.2;;;6.8;;
67344;SDS011;54230;52.402;6.276;2023-05-10T21:45:00;13.2;;;7.1;;
67344;SDS011;54230;52.402;6.276;2023-05-10T21:50:00;13.1;;;7.3;;
67344;SDS011;54230;52.402;6.276;2023-05-10T21:55:00;14.6;;;7.3;;
67344;SDS011;54230;52.402;6.276;2023-05-10T22:00:00;12.8;;;7.3;;
67344;SDS011;54230;52.402;6.276;2023-05-10T22:05:00;13.5;;;7.1;;
67344;SDS011;54230;52.402;6.276;2023-05-10T22:10:00;12.6;;;6.6;;
67344;SDS011;54230;52.402;6.276;2023-05-10T22:15:00;12.3;;;6.6;;
67344;SDS011;54230;52.402;6.276;2023-05-10T22:20:00;13.2;;;7.4;;
67344;SDS011;54230;52.402;6.276;2023-05-10T22:25:00;13.0;;;6.3;;
67344;SDS011;54230;52.402;6.276;2023-05-10T22:30:00;11.4;;;6.5;;
67344;SDS011;54230;52.402;6.276;2023-05-10T22:35:00;13.7;;;7.0;;
67344;SDS011;54230;52.402;6.276;2023-05-10T22:40:00;12.9;;;6.8;;
67344;SDS011;54230;52.402;6.276;2023-05-10T22:45:00;10.3;;;5.9;;
67344;SDS011;54230;52.402;6.276;2023-05-10T22:50:00;13.4;;;7.3;;
67344;SDS011;54230;52.402;6.276;2023-05-10T22:55:00;12.4;;;6.6;;
67344;SDS011;54230;52.402;6.276;2023-05-10T23:00:00;13.4;;;7.5;;
67344;SDS011;54230;52.402;6.276;2023-05-10T23:05:00;12.8;;;7.6;;
67344;SDS011;54230;52.402;6.276;2023-05-10T23:10:00;14.4;;;8.1;;
67344;SDS011;54230;52.402;6.276;2023-05-10T23:15:00;14.4;;;8.1;;
67344;SDS011;54230;52.402;6.276;2023-05-10T23:20:00;16.0;;;8.3;;
67344;SDS011;54230;52.402;6.276;2023-05-10T23:25:00;12.7;;;7.8;;
67344;SDS011;54230;52.402;6.276;2023-05-10T23:30:00;13.7;;;7.6;;
67344;SDS011;54230;52.402;6.276;2023-05-10T23:35:00;14.5;;;7.8;;
67344;SDS011;54230;52.402;6.276;2023-05-10T23:40:00;13.1;;;7.5;;
67344;SDS011;54230;52.402;6.276;2023-05-10T23:45:00;12.6;;;7.3;;
67344;SDS011;54230;52.402;6.276;2023-05-10T23:50:00;11.4;;;7.4;;
67344;SDS011;54230;52.402;6.276;2023-05-10T23:55:00;12.8;;;7.1;;
